Main page
METAR-TAF:

METAR-TAF

Airports :

Osijek Airport

Osijek, Croatia

latitude: 45-27N, longitude: 018-48E, elevation: 88 m

Current weather observation

The report was made 3 hours and 11 minutes ago, at 20:00 UTC
Wind 3 kt from the West/Southwest
Temperature 20°C
Humidity 88%
Pressure 1010 hPa
Visibility 10 km or more
no clouds below 1500 m and no cumulonimbus

METAR: LDOS 202000Z 25003KT CAVOK 20/18 Q1010

Time: 01:11 (23:11 UTC)

Forecast

The report was made 5 hours and 46 minutes ago, at 17:25 UTC
Forecast valid from 20 at 18 UTC to 21 at 18 UTC
Wind 5 kt from the North/Northeast
Visibility 10 km or more
no clouds below 1500 m and no cumulonimbus
Probability 30% :
Temporary
from 21 at 02 UTC to 21 at 06 UTC
Visibility: 3000 m
Broken clouds at a height of 1000 ft
light rain, mist,

TAF: LDOS 201725Z 2018/2118 02005KT CAVOK TX29/2114Z TN18/2103Z PROB30 TEMPO 2102/2106 3000 -RA BR BKN010

Weather observations and forecasts of more than 4000 airports (METAR and TAF reports).

The available stations are represented by yellow and red dots on the map.

Hover mouse over dot to see the name of the station.

Then click to see weather observations and forecasts.

To change the map : click on the green buttons with a black cross to zoom in, on the green button with a dash to zoom out, or on the green arrows for adjacent maps.


METAR-TAF: